• Join FlightAware (Why Join?)
  • Login
  • US Flag 
12:19AM EDT


 

Airport Tracker/Info


-or-


 

Live Flight TrackerFlight Track Log ✈ N3281S ✈ 23-Jun-2013 ✈ KRAV - I19

Flight Track Log - Related Links

Times and Time Zones

All times are in EDT time to prevent confusion due to time zone crossing. See the N3281S flight status page for this flight to view local times or setup timezone preferences in your user account.

Time Position Orientation Groundspeed Altitude Reporting Facility
EDT Latitude Longitude Course Direction KTS MPH feet Rate Location/Type
11:29AM 40.6206 -76.9150 260° West 128 147 4,600  Level New York Center
11:30AM 40.6139 -76.9633 260° West 128 147 4,600  Level New York Center
11:31AM 40.6117 -77.0044 266° West 123 142 4,600  Level New York Center
11:32AM 40.6069 -77.0558 263° West 123 142 4,600  Level New York Center
11:33AM 40.6047 -77.0967 266° West 123 142 4,600  Level New York Center
11:34AM 40.6022 -77.1456 266° West 123 142 4,600  Level New York Center
11:35AM 40.6039 -77.1894 273° West 123 142 4,600  Level New York Center
11:36AM 40.6014 -77.2386 266° West 123 142 4,600 -60 Level New York Center
11:37AM 40.5969 -77.2792 262° West 123 142 4,500 -60 Descending New York Center
11:38AM 40.5922 -77.3278 263° West 123 142 4,500  Level New York Center
11:39AM 40.5900 -77.3686 266° West 123 142 4,600  Climbing New York Center
11:40AM 40.5872 -77.4175 266° West 123 142 4,500  Descending New York Center
11:41AM 40.5869 -77.4586 270° West 123 142 4,600 60 Climbing New York Center
11:42AM 40.5883 -77.5053 272° West 123 142 4,700  Climbing New York Center
11:43AM 40.5822 -77.5428 258° West 123 142 4,700 -60 Level New York Center
11:44AM 40.5731 -77.5911 256° West 123 142 4,600 -120 Descending New York Center
11:45AM 40.5706 -77.6347 266° West 123 142 4,500 -60 Descending New York Center
11:46AM 40.5678 -77.6808 265° West 123 142 4,500  Level New York Center
11:48AM 40.5458 -77.7933 256° West 125 144 4,600  Climbing Cleveland Center
11:49AM 40.5367 -77.8428 256° West 124 143 4,500 -120 Descending Cleveland Center
11:50AM 40.5292 -77.8842 257° West 124 143 4,400  Descending Cleveland Center
11:51AM 40.5200 -77.9336 256° West 127 146 4,500 60 Climbing Cleveland Center
11:52AM 40.5106 -77.9778 254° West 122 140 4,600  Climbing Cleveland Center
11:53AM 40.5033 -78.0217 258° West 120 138 4,600  Level Cleveland Center
11:54AM 40.4958 -78.0656 257° West 121 139 4,700 60 Climbing Cleveland Center
11:55AM 40.4906 -78.1042 260° West 121 139 4,800 60 Climbing Cleveland Center
11:56AM 40.4808 -78.1428 252° West 120 138 4,900 -120 Climbing Cleveland Center
11:57AM 40.4797 -78.1892 268° West 128 147 4,600 -240 Descending Cleveland Center
11:58AM 40.4808 -78.2383 272° West 130 150 4,500 -60 Descending Cleveland Center
11:59AM 40.4736 -78.2875 259° West 125 144 4,500 -60 Level Cleveland Center
12:00PM 40.4597 -78.3317 248° West 122 140 4,400 -60 Descending Cleveland Center
12:01PM 40.4564 -78.3756 264° West 122 140 4,400  Level Cleveland Center
12:02PM 40.4508 -78.4139 259° West 119 137 4,400  Level Cleveland Center
12:03PM 40.4456 -78.4633 262° West 120 138 4,500  Climbing Cleveland Center
12:04PM 40.4444 -78.5042 268° West 120 138 4,400 -120 Descending Cleveland Center
12:05PM 40.4514 -78.5503 281° West 124 143 4,300  Descending Cleveland Center
12:06PM 40.4439 -78.5969 258° West 118 136 4,500 120 Climbing Cleveland Center
12:07PM 40.4403 -78.6269 261° West 115 132 4,600 60 Climbing Cleveland Center
12:08PM 40.4347 -78.6736 261° West 117 135 4,700  Climbing Cleveland Center
12:10PM 40.4253 -78.7339 258° West 123 142 4,700 -60 Level Cleveland Center
12:10PM 40.4258 -78.7611 272° West 123 142 4,600 -180 Descending Cleveland Center
12:11PM 40.4244 -78.8131 268° West 129 148 4,400 -60 Descending Cleveland Center
12:12PM 40.4231 -78.8539 267° West 124 143 4,500  Climbing Cleveland Center
12:13PM 40.4219 -78.9114 269° West 122 140 4,500  Level Cleveland Center
12:14PM 40.4225 -78.9494 271° West 120 138 4,500  Level Cleveland Center
12:15PM 40.4144 -78.9850 253° West 119 137 4,500 -60 Level Cleveland Center
12:17PM 40.4111 -79.0397 265° West 116 133 4,400 -60 Descending Cleveland Center
12:17PM 40.4094 -79.0778 267° West 121 139 4,400  Level Cleveland Center
12:18PM 40.4039 -79.1189 260° West 121 139 4,500 60 Climbing Cleveland Center
12:19PM 40.4003 -79.1600 263° West 120 138 4,600  Climbing Cleveland Center
12:20PM 40.3944 -79.1983 259° West 121 139 4,600  Level Cleveland Center
12:21PM 40.3867 -79.2392 256° West 121 139 4,600  Level Cleveland Center
12:22PM 40.3786 -79.2803 256° West 119 137 4,700  Climbing Cleveland Center
12:23PM 40.3750 -79.3214 263° West 118 136 4,600 -60 Descending Cleveland Center
12:24PM 40.3692 -79.3678 261° West 119 137 4,600 -60 Level Cleveland Center
12:25PM 40.3675 -79.4114 267° West 123 142 4,500 -60 Descending Cleveland Center
12:26PM 40.3700 -79.4575 274° West 123 142 4,500  Level Cleveland Center
12:27PM 40.3622 -79.4986 256° West 123 142 4,500 -60 Level Cleveland Center
12:29PM 40.3369 -79.5644 243° Southwest  Level FlightAware Approximate
12:36PM 40.2718 -79.9599 260° West  Level FlightAware Approximate
12:37PM 40.2643 -80.0164 260° West  Level FlightAware Approximate
12:38PM 40.2568 -80.0729 260° West  Level FlightAware Approximate
12:39PM 40.2492 -80.1293 260° West  Level FlightAware Approximate
12:40PM 40.2416 -80.1858 260° West  Level FlightAware Approximate
12:41PM 40.2340 -80.2423 260° West  Level FlightAware Approximate
12:42PM 40.2264 -80.2987 260° West  Level FlightAware Approximate
12:43PM 40.2188 -80.3551 260° West  Level FlightAware Approximate
12:44PM 40.2111 -80.4115 260° West  Level FlightAware Approximate
12:45PM 40.2034 -80.4679 260° West  Level FlightAware Approximate
12:46PM 40.1956 -80.5243 260° West  Level FlightAware Approximate
12:47PM 40.1879 -80.5807 260° West  Level FlightAware Approximate
12:48PM 40.1800 -80.6370 260° West  Level FlightAware Approximate
12:49PM 40.1722 -80.6934 260° West  Level FlightAware Approximate
12:50PM 40.1654 -80.7499 264° West  Level FlightAware Approximate
12:51PM 40.1611 -80.8069 264° West  Level FlightAware Approximate
12:52PM 40.1567 -80.8638 264° West  Level FlightAware Approximate
12:52PM 40.2153 -80.5233 259° West 117 135 4,200  Level Cleveland Center
12:53PM 40.1523 -80.9208 264° West  Level FlightAware Approximate
12:53PM 40.2047 -80.5586 249° West 112 129 4,200  Level Cleveland Center
12:54PM 40.1460 -80.9774 259° West  Level FlightAware Approximate
12:54PM 40.1964 -80.6019 256° West 112 129 4,200  Level Cleveland Center
12:55PM 40.1377 -81.0336 259° West  Level FlightAware Approximate
12:55PM 40.1944 -80.6428 266° West 112 129 4,200  Level Cleveland Center
12:56PM 40.1294 -81.0898 259° West  Level FlightAware Approximate
12:56PM 40.1942 -80.6864 270° West 117 135 4,200  Level Cleveland Center
12:57PM 40.1210 -81.1459 259° West  Level FlightAware Approximate
12:57PM 40.1922 -80.7297 267° West 123 142 4,300  Level Cleveland Center
12:58PM 40.2192 -80.7461 335° Northwest 89 102 4,600  Climbing Cleveland Center
12:59PM 40.2294 -80.7869 288° West 106 122 4,300 -180 Descending Cleveland Center
01:00PM 40.2192 -80.8250 251° West 106 122 4,300 -60 Level Cleveland Center
01:01PM 40.2064 -80.8658 248° West 112 129 4,200 -60 Descending Cleveland Center
01:02PM 40.1958 -80.9039 250° West 118 136 4,200  Level Cleveland Center
01:03PM 40.1894 -80.9472 259° West 118 136 4,200 -60 Level Cleveland Center
01:04PM 40.1811 -80.9853 254° West 118 136 4,100  Descending Cleveland Center
01:05PM 40.1706 -81.0286 252° West 123 142 4,200  Climbing Cleveland Center
01:06PM 40.1619 -81.0667 254° West 123 142 4,100  Descending Cleveland Center
01:07PM 40.1536 -81.1100 256° West 123 142 4,300 60 Climbing Cleveland Center
01:08PM 40.1428 -81.1481 250° West 123 142 4,300  Level Cleveland Center
01:09PM 40.1322 -81.1886 251° West 123 142 4,300  Level Cleveland Center
01:10PM 40.1258 -81.2292 258° West 123 142 4,300  Level Cleveland Center
01:11PM 40.1172 -81.2700 255° West 123 142 4,300  Level Cleveland Center
01:12PM 40.1128 -81.3161 263° West 123 142 4,300  Level Cleveland Center
01:13PM 40.1042 -81.3539 253° West 123 142 4,300  Level Cleveland Center
01:14PM 40.0897 -81.4122 252° West 116 133 4,300  Level Indianapolis Center
01:15PM 40.0886 -81.4511 268° West 112 129 4,300  Level Indianapolis Center
01:16PM 40.0797 -81.4928 254° West 113 130 4,400  Climbing Indianapolis Center
01:17PM 40.0717 -81.5356 256° West 116 133 4,400  Level Indianapolis Center
01:18PM 40.0639 -81.5839 258° West 125 144 4,400  Level Indianapolis Center
01:19PM 40.0561 -81.6258 256° West 116 133 4,500 60 Climbing Indianapolis Center
01:21PM 40.0381 -81.6669 240° Southwest 117 135 4,600  Climbing Indianapolis Center
01:22PM 40.0317 -81.7069 258° West 115 132 4,600  Level Indianapolis Center
01:23PM 40.0286 -81.7522 265° West 122 140 4,700  Climbing Indianapolis Center
01:24PM 40.0256 -81.7997 265° West 123 142 4,700 -60 Level Indianapolis Center
01:25PM 40.0219 -81.8436 264° West 122 140 4,600 -60 Descending Indianapolis Center
01:26PM 40.0125 -81.8861 254° West 121 139 4,600 -120 Level Indianapolis Center
01:27PM 40.0031 -81.9272 253° West 119 137 4,400 -60 Descending Indianapolis Center
01:28PM 40.0014 -81.9717 267° West 121 139 4,500  Climbing Indianapolis Center
01:29PM 39.9983 -82.0178 265° West 128 147 4,400 -120 Descending Indianapolis Center
01:30PM 39.9967 -82.0625 267° West 123 142 4,300 -60 Descending Indianapolis Center
01:31PM 39.9903 -82.1058 259° West 121 139 4,300  Level Indianapolis Center
01:32PM 39.9825 -82.1544 258° West 118 136 4,400  Climbing Indianapolis Center
01:33PM 39.9797 -82.1972 265° West 117 135 4,400  Level Indianapolis Center
01:34PM 39.9742 -82.2414 261° West 120 138 4,400  Level Indianapolis Center
01:35PM 39.9719 -82.2864 266° West 123 142 4,400  Level Indianapolis Center
01:36PM 39.9667 -82.3306 261° West 122 140 4,400  Level Indianapolis Center
01:37PM 39.9592 -82.3744 257° West 123 142 4,400  Level Indianapolis Center
01:38PM 39.9519 -82.4183 258° West 123 142 4,400  Level Indianapolis Center
01:39PM 39.9461 -82.4617 260° West 122 140 4,500  Climbing Indianapolis Center
01:40PM 39.9414 -82.5125 263° West 121 139 4,500  Level Indianapolis Center
01:41PM 39.9358 -82.5572 261° West 122 140 4,500  Level Indianapolis Center
01:42PM 39.9258 -82.5972 252° West 119 137 4,500  Level Indianapolis Center
01:43PM 39.9133 -82.6444 251° West 120 138 4,500  Level Indianapolis Center
01:44PM 39.9044 -82.6869 255° West 120 138 4,500  Level Indianapolis Center
01:45PM 39.8953 -82.7233 252° West 119 137 4,500  Level Indianapolis Center
01:46PM 39.8881 -82.7661 258° West 120 138 4,500  Level Indianapolis Center
01:47PM 39.8831 -82.8092 261° West 120 138 4,600  Climbing Indianapolis Center
01:48PM 39.8764 -82.8578 260° West 122 140 4,500 -60 Descending Indianapolis Center
01:49PM 39.8694 -82.9031 259° West 121 139 4,500 -60 Level Indianapolis Center
01:50PM 39.8664 -82.9436 264° West 121 139 4,400 -120 Descending Indianapolis Center
01:51PM 39.8633 -82.9894 265° West 121 139 4,300 -60 Descending Indianapolis Center
01:52PM 39.8544 -83.0328 255° West 120 138 4,300  Level Indianapolis Center
01:53PM 39.8494 -83.0692 260° West 119 137 4,300  Level Indianapolis Center
01:54PM 39.8464 -83.1125 265° West 121 139 4,400  Climbing Indianapolis Center
01:55PM 39.8433 -83.1556 265° West 120 138 4,400  Level Indianapolis Center
01:56PM 39.8403 -83.2014 265° West 117 135 4,400  Level Indianapolis Center
01:57PM 39.8331 -83.2439 258° West 117 135 4,500  Climbing Indianapolis Center
01:58PM 39.8261 -83.2839 257° West 118 136 4,400 -120 Descending Indianapolis Center
01:59PM 39.8231 -83.3269 265° West 122 140 4,300 -60 Descending Indianapolis Center
02:00PM 39.8139 -83.3664 253° West 123 142 4,300  Level Indianapolis Center
02:01PM 39.8025 -83.4058 249° West 139 160 4,400  Climbing Indianapolis Center
02:02PM 39.7953 -83.4483 258° West 117 135 4,400  Level Indianapolis Center
02:03PM 39.7858 -83.4933 255° West 121 139 4,400  Level Indianapolis Center
02:04PM 39.7764 -83.5358 254° West 120 138 4,400  Level Indianapolis Center
02:05PM 39.7719 -83.5517 250° West 121 139 4,400 -120 Level Indianapolis Center
02:05PM 39.7631 -83.5747 243° Southwest 121 139 4,300 -240 Descending Indianapolis Center
02:06PM 39.7592 -83.5914 253° West 118 136 4,200  Descending Indianapolis Center
02:07PM 39.7522 -83.6361 259° West 122 140 4,300 120 Climbing Indianapolis Center
02:08PM 39.7475 -83.6786 262° West 121 139 4,500  Climbing Indianapolis Center
02:09PM 39.7394 -83.7203 256° West 119 137 4,400 -120 Descending Indianapolis Center
02:10PM 39.7267 -83.7614 248° West 120 138 4,300 -60 Descending Indianapolis Center
02:11PM 39.7386 -83.8008 292° West 125 144 4,300  Level Indianapolis Center
02:12PM 39.7381 -83.8531 269° West 123 142 4,300 -60 Level Indianapolis Center
02:13PM 39.7378 -83.8936 270° West 122 140 4,200 -120 Descending Indianapolis Center
02:15PM 39.7004 -83.9723 247° West  Level Estimated
02:22PM 39.6833 -83.9833 247° West  Level FlightAware Approximate
02:23PM 39.6910 -83.9920 247° West  Level Estimated